Terminal Aerodrome Forecast
Issued by NWS

Home | Current Version | Previous Version | Text Only | Print | Product List | Glossary Off
Versions: 1 2 3 4 5 6 7 8 9 10 11 12 13 14 15 16 17 18 19 20 21 22 23 24 25 26 27 28 29 30

492
FTUS43 KLOT 210534
TAFDPA
TAF
KDPA 210534Z 2106/2206 17012KT P6SM BKN060 OVC080
     FM210800 22010KT 6SM -SHRA SCT015 OVC035
      TEMPO 2108/2112 3SM SHRA BR BKN008 OVC015
     FM211300 25007KT P6SM SCT007 BKN012
     FM211800 28006KT P6SM SCT025
     FM212300 23004KT P6SM SKC=

USA.gov is the U.S. government's official web portal to all federal, state and local government web resources and services.